EZY2634 LTAI-EGBB
Flight info
| Callsign | EZY2634 |
|---|---|
| Flight time | N/A |
| Altitude | 34000 |
| Route | EVBOL UT489 IMR DCT RIKSO DCT FSK DCT DISOR DCT LONTA UL608 DOLEV DCT SABAD DCT KUBUD DCT GIKUS DCT SOTOV DCT XEBIX DCT USUDO DCT LUPEN DCT ETINO DCT ABNUR DCT DIMAL DCT ALESO T420 HEMEL |
| Aircraft | A320/M-SDE3FGHIRWY/LB1 |
Departure
| Time | 2026-05-05 05:57 |
|---|---|
| Airport | Antalya International Airport (LTAI) |
Arrival
| Time | N/A |
|---|---|
| Airport | Birmingham Airport (EGBB) |
| Time | Latitude | Longitude | Altitude | Speed | Heading |
|---|---|---|---|---|---|
| 2026-05-05 04:53 | 36.89720 | 30.80208 | 180 ft | 0 kts | 316° |
| 2026-05-05 04:54 | 36.89719 | 30.80208 | 180 ft | 0 kts | 316° |
| 2026-05-05 05:09 | 36.89719 | 30.80209 | 180 ft | 0 kts | 316° |
| 2026-05-05 05:19 | 36.89718 | 30.80209 | 179 ft | 0 kts | 316° |
| 2026-05-05 05:30 | 36.89718 | 30.80210 | 179 ft | 0 kts | 316° |
| 2026-05-05 05:41 | 36.89703 | 30.80228 | 179 ft | 4 kts | 316° |
| 2026-05-05 05:41 | 36.89684 | 30.80251 | 179 ft | 4 kts | 316° |
| 2026-05-05 05:42 | 36.89664 | 30.80275 | 179 ft | 4 kts | 316° |
| 2026-05-05 05:42 | 36.89648 | 30.80294 | 179 ft | 0 kts | 316° |
| 2026-05-05 05:45 | 36.89653 | 30.80317 | 179 ft | 5 kts | 156° |
| 2026-05-05 05:45 | 36.89621 | 30.80316 | 178 ft | 4 kts | 180° |
| 2026-05-05 05:46 | 36.89602 | 30.80310 | 178 ft | 2 kts | 205° |
| 2026-05-05 05:46 | 36.89595 | 30.80309 | 178 ft | 0 kts | 187° |
| 2026-05-05 05:46 | 36.89603 | 30.80310 | 178 ft | 0 kts | 187° |
| 2026-05-05 05:46 | 36.89573 | 30.80319 | 178 ft | 5 kts | 136° |
| 2026-05-05 05:47 | 36.89576 | 30.80365 | 178 ft | 7 kts | 77° |
| 2026-05-05 05:47 | 36.89583 | 30.80419 | 178 ft | 6 kts | 89° |
| 2026-05-05 05:47 | 36.89579 | 30.80481 | 177 ft | 7 kts | 95° |
| 2026-05-05 05:47 | 36.89575 | 30.80536 | 177 ft | 6 kts | 96° |
| 2026-05-05 05:48 | 36.89571 | 30.80582 | 177 ft | 5 kts | 95° |
| 2026-05-05 05:48 | 36.89568 | 30.80617 | 177 ft | 4 kts | 96° |
| 2026-05-05 05:48 | 36.89546 | 30.80665 | 176 ft | 9 kts | 139° |
| 2026-05-05 05:48 | 36.89491 | 30.80675 | 176 ft | 8 kts | 185° |
| 2026-05-05 05:49 | 36.89436 | 30.80669 | 176 ft | 7 kts | 186° |
| 2026-05-05 05:49 | 36.89389 | 30.80662 | 175 ft | 7 kts | 186° |
| 2026-05-05 05:49 | 36.89346 | 30.80657 | 175 ft | 5 kts | 186° |
| 2026-05-05 05:49 | 36.89313 | 30.80651 | 175 ft | 4 kts | 187° |
| 2026-05-05 05:50 | 36.89289 | 30.80647 | 175 ft | 3 kts | 187° |
| 2026-05-05 05:50 | 36.89244 | 30.80640 | 175 ft | 8 kts | 187° |
| 2026-05-05 05:50 | 36.89195 | 30.80636 | 174 ft | 6 kts | 183° |
| 2026-05-05 05:50 | 36.89157 | 30.80631 | 174 ft | 5 kts | 187° |
| 2026-05-05 05:51 | 36.89111 | 30.80624 | 174 ft | 10 kts | 187° |
| 2026-05-05 05:51 | 36.89050 | 30.80615 | 174 ft | 8 kts | 187° |
| 2026-05-05 05:51 | 36.89000 | 30.80608 | 174 ft | 7 kts | 187° |
| 2026-05-05 05:51 | 36.88954 | 30.80601 | 174 ft | 10 kts | 185° |
| 2026-05-05 05:52 | 36.88870 | 30.80591 | 173 ft | 12 kts | 186° |
| 2026-05-05 05:52 | 36.88794 | 30.80581 | 173 ft | 10 kts | 186° |
| 2026-05-05 05:52 | 36.88729 | 30.80572 | 173 ft | 9 kts | 186° |
| 2026-05-05 05:52 | 36.88673 | 30.80565 | 172 ft | 7 kts | 186° |
| 2026-05-05 05:53 | 36.88623 | 30.80558 | 172 ft | 9 kts | 186° |
| 2026-05-05 05:53 | 36.88483 | 30.80538 | 171 ft | 21 kts | 187° |
| 2026-05-05 05:53 | 36.88346 | 30.80518 | 171 ft | 19 kts | 186° |
| 2026-05-05 05:53 | 36.88233 | 30.80499 | 170 ft | 8 kts | 188° |
| 2026-05-05 05:54 | 36.88182 | 30.80491 | 169 ft | 9 kts | 185° |
| 2026-05-05 05:54 | 36.88126 | 30.80524 | 169 ft | 9 kts | 129° |
| 2026-05-05 05:54 | 36.88111 | 30.80591 | 168 ft | 8 kts | 99° |
| 2026-05-05 05:54 | 36.88106 | 30.80653 | 167 ft | 8 kts | 89° |
| 2026-05-05 05:55 | 36.88131 | 30.80721 | 168 ft | 6 kts | 34° |
| 2026-05-05 05:55 | 36.88158 | 30.80729 | 168 ft | 0 kts | 5° |
| 2026-05-05 05:56 | 36.88162 | 30.80730 | 168 ft | 4 kts | 6° |
| 2026-05-05 05:56 | 36.88447 | 30.80766 | 171 ft | 80 kts | 6° |
| 2026-05-05 05:56 | 36.89238 | 30.80874 | 174 ft | 145 kts | 5° |
| 2026-05-05 05:56 | 36.90379 | 30.81078 | 420 ft | 174 kts | 2° |
| 2026-05-05 05:57 | 36.91574 | 30.81212 | 1232 ft | 177 kts | 1° |
| 2026-05-05 05:57 | 36.92828 | 30.81244 | 2100 ft | 184 kts | 358° |
| 2026-05-05 05:57 | 36.94149 | 30.81542 | 2570 ft | 203 kts | 20° |
| 2026-05-05 05:57 | 36.95423 | 30.82326 | 3256 ft | 208 kts | 26° |
| 2026-05-05 05:58 | 36.96702 | 30.83201 | 4027 ft | 210 kts | 26° |
| 2026-05-05 05:58 | 36.97871 | 30.84310 | 4819 ft | 214 kts | 49° |
| 2026-05-05 05:58 | 36.98571 | 30.85975 | 5515 ft | 223 kts | 70° |
| 2026-05-05 05:58 | 36.98683 | 30.88026 | 5812 ft | 252 kts | 92° |
| 2026-05-05 05:59 | 36.98485 | 30.90257 | 6294 ft | 267 kts | 92° |
| 2026-05-05 05:59 | 36.98281 | 30.92595 | 7030 ft | 271 kts | 92° |
| 2026-05-05 05:59 | 36.98079 | 30.94964 | 7725 ft | 276 kts | 92° |
| 2026-05-05 05:59 | 36.97875 | 30.97369 | 7950 ft | 278 kts | 92° |
| 2026-05-05 06:00 | 36.97675 | 30.99768 | 7992 ft | 277 kts | 92° |
| 2026-05-05 06:00 | 36.97477 | 31.02134 | 7996 ft | 276 kts | 92° |
| 2026-05-05 06:00 | 36.97249 | 31.04531 | 7993 ft | 278 kts | 98° |
| 2026-05-05 06:00 | 36.96434 | 31.06740 | 7989 ft | 286 kts | 126° |
| 2026-05-05 06:01 | 36.94822 | 31.08236 | 8079 ft | 299 kts | 158° |
| 2026-05-05 06:01 | 36.92744 | 31.08556 | 8804 ft | 305 kts | 184° |
| 2026-05-05 06:01 | 36.90623 | 31.08324 | 9581 ft | 307 kts | 185° |
| 2026-05-05 06:01 | 36.88483 | 31.08039 | 10222 ft | 315 kts | 186° |
| 2026-05-05 06:02 | 36.86254 | 31.07720 | 10385 ft | 338 kts | 186° |
| 2026-05-05 06:02 | 36.83838 | 31.07368 | 10523 ft | 361 kts | 186° |
| 2026-05-05 06:02 | 36.81272 | 31.06996 | 10646 ft | 381 kts | 186° |
| 2026-05-05 06:02 | 36.78564 | 31.06610 | 10777 ft | 400 kts | 186° |
| 2026-05-05 06:03 | 36.75749 | 31.06212 | 11011 ft | 413 kts | 186° |
| 2026-05-05 06:03 | 36.72860 | 31.05801 | 11481 ft | 419 kts | 187° |
| 2026-05-05 06:03 | 36.69943 | 31.05380 | 11993 ft | 424 kts | 187° |
| 2026-05-05 06:03 | 36.67047 | 31.04855 | 12469 ft | 428 kts | 194° |
| 2026-05-05 06:04 | 36.64283 | 31.03469 | 12926 ft | 429 kts | 213° |
| 2026-05-05 06:04 | 36.61969 | 31.01144 | 13398 ft | 428 kts | 231° |
| 2026-05-05 06:04 | 36.60307 | 30.98094 | 13844 ft | 424 kts | 249° |
| 2026-05-05 06:04 | 36.59436 | 30.94613 | 14276 ft | 418 kts | 266° |
| 2026-05-05 06:05 | 36.59380 | 30.91033 | 14749 ft | 411 kts | 280° |
| 2026-05-05 06:05 | 36.59669 | 30.87535 | 15237 ft | 412 kts | 281° |
| 2026-05-05 06:05 | 36.59967 | 30.83976 | 15733 ft | 413 kts | 281° |
| 2026-05-05 06:05 | 36.60263 | 30.80408 | 16230 ft | 414 kts | 281° |
| 2026-05-05 06:06 | 36.60556 | 30.76836 | 16715 ft | 415 kts | 281° |
| 2026-05-05 06:06 | 36.60847 | 30.73262 | 17188 ft | 416 kts | 281° |
| 2026-05-05 06:06 | 36.61140 | 30.69667 | 17655 ft | 417 kts | 281° |
| 2026-05-05 06:06 | 36.61428 | 30.66116 | 18110 ft | 418 kts | 281° |
| 2026-05-05 06:07 | 36.61719 | 30.62500 | 18519 ft | 420 kts | 281° |
| 2026-05-05 06:07 | 36.62008 | 30.58871 | 18882 ft | 421 kts | 281° |
| 2026-05-05 06:07 | 36.62295 | 30.55237 | 19227 ft | 423 kts | 282° |
| 2026-05-05 06:07 | 36.62585 | 30.51590 | 19580 ft | 424 kts | 282° |
| 2026-05-05 06:08 | 36.62875 | 30.47926 | 19925 ft | 426 kts | 282° |
| 2026-05-05 06:08 | 36.63167 | 30.44248 | 20226 ft | 428 kts | 282° |
| 2026-05-05 06:08 | 36.63460 | 30.40554 | 20552 ft | 429 kts | 282° |
| 2026-05-05 06:08 | 36.63747 | 30.36888 | 20885 ft | 431 kts | 282° |
| 2026-05-05 06:09 | 36.64036 | 30.33157 | 21133 ft | 434 kts | 282° |
| 2026-05-05 06:09 | 36.64438 | 30.29442 | 21463 ft | 430 kts | 288° |
| 2026-05-05 06:09 | 36.65301 | 30.25902 | 21747 ft | 425 kts | 297° |
| 2026-05-05 06:09 | 36.66623 | 30.22644 | 22021 ft | 420 kts | 307° |
| 2026-05-05 06:10 | 36.68351 | 30.19734 | 22316 ft | 416 kts | 315° |
| 2026-05-05 06:10 | 36.70334 | 30.17105 | 22599 ft | 416 kts | 317° |
| 2026-05-05 06:10 | 36.72301 | 30.14513 | 22866 ft | 417 kts | 317° |
| 2026-05-05 06:10 | 36.74297 | 30.11873 | 23149 ft | 419 kts | 317° |
| 2026-05-05 06:11 | 36.76299 | 30.09213 | 23406 ft | 420 kts | 316° |
| 2026-05-05 06:11 | 36.78299 | 30.06547 | 23673 ft | 422 kts | 316° |
| 2026-05-05 06:11 | 36.80310 | 30.03856 | 23919 ft | 424 kts | 316° |
| 2026-05-05 06:11 | 36.82322 | 30.01163 | 24151 ft | 425 kts | 316° |
| 2026-05-05 06:12 | 36.84455 | 29.98624 | 24408 ft | 422 kts | 322° |
| 2026-05-05 06:12 | 36.86652 | 29.96270 | 24745 ft | 420 kts | 322° |
| 2026-05-05 06:12 | 36.88873 | 29.93889 | 25073 ft | 419 kts | 322° |
| 2026-05-05 06:12 | 36.91084 | 29.91521 | 25396 ft | 418 kts | 322° |
| 2026-05-05 06:13 | 36.93295 | 29.89151 | 25737 ft | 417 kts | 322° |
| 2026-05-05 06:13 | 36.95502 | 29.86787 | 26083 ft | 416 kts | 322° |
| 2026-05-05 06:13 | 36.97694 | 29.84436 | 26437 ft | 415 kts | 322° |
| 2026-05-05 06:13 | 36.99898 | 29.82089 | 26783 ft | 414 kts | 322° |
| 2026-05-05 06:14 | 37.02066 | 29.79796 | 27113 ft | 413 kts | 322° |
| 2026-05-05 06:14 | 37.04257 | 29.77481 | 27463 ft | 412 kts | 322° |
| 2026-05-05 06:14 | 37.06443 | 29.75171 | 27799 ft | 411 kts | 322° |
| 2026-05-05 06:14 | 37.08630 | 29.72856 | 28146 ft | 410 kts | 322° |
| 2026-05-05 06:15 | 37.10811 | 29.70542 | 28485 ft | 409 kts | 322° |
| 2026-05-05 06:15 | 37.12981 | 29.68237 | 28833 ft | 409 kts | 322° |
| 2026-05-05 06:15 | 37.15039 | 29.65768 | 29165 ft | 411 kts | 314° |
| 2026-05-05 06:15 | 37.16721 | 29.62850 | 29495 ft | 416 kts | 304° |
| 2026-05-05 06:16 | 37.17954 | 29.59545 | 29794 ft | 422 kts | 294° |
| 2026-05-05 06:16 | 37.18757 | 29.55985 | 30108 ft | 425 kts | 290° |
| 2026-05-05 06:16 | 37.19497 | 29.52396 | 30371 ft | 425 kts | 290° |
| 2026-05-05 06:16 | 37.20242 | 29.48814 | 30638 ft | 424 kts | 290° |
| 2026-05-05 06:17 | 37.20983 | 29.45280 | 30902 ft | 424 kts | 290° |
| 2026-05-05 06:17 | 37.21733 | 29.41700 | 31176 ft | 423 kts | 290° |
| 2026-05-05 06:17 | 37.22479 | 29.38129 | 31453 ft | 423 kts | 290° |
| 2026-05-05 06:17 | 37.23220 | 29.34551 | 31712 ft | 423 kts | 289° |
| 2026-05-05 06:18 | 37.23955 | 29.30973 | 31978 ft | 422 kts | 289° |
| 2026-05-05 06:18 | 37.24688 | 29.27404 | 32244 ft | 422 kts | 289° |
| 2026-05-05 06:18 | 37.25421 | 29.23847 | 32492 ft | 421 kts | 289° |
| 2026-05-05 06:18 | 37.26156 | 29.20280 | 32738 ft | 421 kts | 289° |
| 2026-05-05 06:19 | 37.26889 | 29.16716 | 33004 ft | 421 kts | 289° |
| 2026-05-05 06:19 | 37.27611 | 29.13200 | 33241 ft | 420 kts | 289° |
| 2026-05-05 06:19 | 37.28341 | 29.09646 | 33494 ft | 420 kts | 288° |
| 2026-05-05 06:19 | 37.29070 | 29.06089 | 33784 ft | 419 kts | 288° |
| 2026-05-05 06:20 | 37.29797 | 29.02530 | 33996 ft | 419 kts | 288° |
| 2026-05-05 06:20 | 37.30524 | 28.98968 | 34043 ft | 422 kts | 288° |
| 2026-05-05 06:20 | 37.31985 | 28.91804 | 34043 ft | 423 kts | 288° |
| 2026-05-05 06:21 | 37.33428 | 28.84669 | 34041 ft | 424 kts | 288° |
| 2026-05-05 06:21 | 37.34877 | 28.77462 | 34038 ft | 424 kts | 288° |
| 2026-05-05 06:22 | 37.37193 | 28.70738 | 34037 ft | 417 kts | 306° |
| 2026-05-05 06:22 | 37.40563 | 28.64809 | 34029 ft | 417 kts | 307° |
| 2026-05-05 06:23 | 37.43924 | 28.58915 | 34022 ft | 417 kts | 307° |
| 2026-05-05 06:23 | 37.47295 | 28.52952 | 34019 ft | 418 kts | 307° |
| 2026-05-05 06:24 | 37.50673 | 28.46980 | 34016 ft | 418 kts | 307° |
| 2026-05-05 06:24 | 37.53488 | 28.42017 | 34021 ft | 419 kts | 307° |
| 2026-05-05 06:25 | 37.57424 | 28.35049 | 34021 ft | 420 kts | 307° |
| 2026-05-05 06:25 | 37.60262 | 28.30018 | 34019 ft | 420 kts | 307° |
| 2026-05-05 06:26 | 37.63649 | 28.24009 | 34018 ft | 420 kts | 307° |
| 2026-05-05 06:26 | 37.67017 | 28.18015 | 34022 ft | 421 kts | 307° |
| 2026-05-05 06:27 | 37.72110 | 28.08930 | 34030 ft | 422 kts | 306° |
| 2026-05-05 06:28 | 37.75495 | 28.02885 | 34032 ft | 423 kts | 306° |
| 2026-05-05 06:28 | 37.78889 | 27.96811 | 34036 ft | 423 kts | 306° |
| 2026-05-05 06:29 | 37.82290 | 27.90714 | 34051 ft | 424 kts | 306° |
| 2026-05-05 06:29 | 37.85685 | 27.84612 | 34043 ft | 424 kts | 306° |
| 2026-05-05 06:30 | 37.89066 | 27.78514 | 34046 ft | 425 kts | 306° |
| 2026-05-05 06:30 | 37.92464 | 27.72382 | 34039 ft | 425 kts | 306° |
| 2026-05-05 06:31 | 37.95860 | 27.66237 | 34036 ft | 425 kts | 306° |
| 2026-05-05 06:31 | 37.99262 | 27.60082 | 34053 ft | 426 kts | 306° |
| 2026-05-05 06:32 | 38.02669 | 27.53922 | 34055 ft | 426 kts | 306° |
| 2026-05-05 06:32 | 38.06053 | 27.47783 | 34057 ft | 427 kts | 306° |
| 2026-05-05 06:33 | 38.09449 | 27.41599 | 34061 ft | 427 kts | 306° |
| 2026-05-05 06:33 | 38.12855 | 27.35405 | 34055 ft | 427 kts | 305° |
| 2026-05-05 06:34 | 38.16248 | 27.29199 | 34062 ft | 428 kts | 305° |
| 2026-05-05 06:34 | 38.19640 | 27.22978 | 34071 ft | 428 kts | 305° |
| 2026-05-05 06:35 | 38.23029 | 27.16761 | 34067 ft | 428 kts | 305° |
| 2026-05-05 06:35 | 38.26404 | 27.10566 | 34070 ft | 428 kts | 305° |
| 2026-05-05 06:36 | 38.29797 | 27.04316 | 34072 ft | 428 kts | 305° |
| 2026-05-05 06:36 | 38.33667 | 26.98592 | 34066 ft | 428 kts | 319° |